M C B H Kaneohe Bay, Hawaii
Current Conditions -  °F | °C
As of 3:57 AM on Friday 24 Oct 2014 (Local Time) from PHNG Reporting Station
Scattered Clouds Scattered Clouds  
Wind Chill: 78°   Ceiling: Unl
Heat Index: 80°   Visibility: 10mi
Dew Point: 70°   Wind: 7mph
Humidity: 76%   Direction: 90°E
Pressure: 30"   Gusts: NA
Location:  21.4527°N, 157.772°W
Report Text: PHNG 241357Z 09006KT 10SM FEW025 FEW030 SCT037 26/21 A3000 RMK AO2 SLP152 T02560211 $
Loading
Personal Weather Stations






























Interactive Weather Map
Tropical Storm Tracking
New forecast layout! Learn more

10-Day Weather Forecast

Advertisements
Track Severe Weather on mobile